sensor_id;sensor_type;location;lat;lon;timestamp;P1;durP1;ratioP1;P2;durP2;ratioP2
9256;SDS011;4665;51.368;6.782;2022-09-09T00:01:28;1.87;;;0.77;;
9256;SDS011;4665;51.368;6.782;2022-09-09T00:04:00;2.30;;;1.10;;
9256;SDS011;4665;51.368;6.782;2022-09-09T00:06:31;1.30;;;0.80;;
9256;SDS011;4665;51.368;6.782;2022-09-09T00:11:43;1.77;;;0.83;;
9256;SDS011;4665;51.368;6.782;2022-09-09T00:16:58;2.33;;;1.30;;
9256;SDS011;4665;51.368;6.782;2022-09-09T00:19:32;1.17;;;1.07;;
9256;SDS011;4665;51.368;6.782;2022-09-09T00:24:49;1.33;;;1.23;;
9256;SDS011;4665;51.368;6.782;2022-09-09T00:32:50;2.43;;;1.30;;
9256;SDS011;4665;51.368;6.782;2022-09-09T00:35:24;2.33;;;1.40;;
9256;SDS011;4665;51.368;6.782;2022-09-09T00:38:10;2.70;;;1.63;;
9256;SDS011;4665;51.368;6.782;2022-09-09T00:40:50;1.90;;;1.40;;
9256;SDS011;4665;51.368;6.782;2022-09-09T00:43:34;2.73;;;1.17;;
9256;SDS011;4665;51.368;6.782;2022-09-09T00:51:55;1.70;;;1.23;;
9256;SDS011;4665;51.368;6.782;2022-09-09T00:54:37;1.53;;;1.03;;
9256;SDS011;4665;51.368;6.782;2022-09-09T01:11:23;1.10;;;1.00;;
9256;SDS011;4665;51.368;6.782;2022-09-09T01:14:10;1.73;;;1.00;;
9256;SDS011;4665;51.368;6.782;2022-09-09T01:16:43;3.63;;;1.47;;
9256;SDS011;4665;51.368;6.782;2022-09-09T01:19:10;1.27;;;0.93;;
9256;SDS011;4665;51.368;6.782;2022-09-09T01:21:53;1.93;;;1.20;;
9256;SDS011;4665;51.368;6.782;2022-09-09T01:27:06;1.20;;;1.10;;
9256;SDS011;4665;51.368;6.782;2022-09-09T01:29:33;1.07;;;1.07;;
9256;SDS011;4665;51.368;6.782;2022-09-09T01:34:27;1.93;;;1.40;;
9256;SDS011;4665;51.368;6.782;2022-09-09T01:37:05;1.33;;;0.87;;
9256;SDS011;4665;51.368;6.782;2022-09-09T01:39:37;1.13;;;1.03;;
9256;SDS011;4665;51.368;6.782;2022-09-09T01:42:05;3.07;;;1.00;;
9256;SDS011;4665;51.368;6.782;2022-09-09T01:44:32;2.17;;;1.13;;
9256;SDS011;4665;51.368;6.782;2022-09-09T01:47:00;2.27;;;1.00;;
9256;SDS011;4665;51.368;6.782;2022-09-09T01:49:27;1.00;;;1.00;;
9256;SDS011;4665;51.368;6.782;2022-09-09T01:51:53;2.63;;;1.10;;
9256;SDS011;4665;51.368;6.782;2022-09-09T01:54:20;2.13;;;1.20;;
9256;SDS011;4665;51.368;6.782;2022-09-09T02:02:09;1.77;;;1.50;;
9256;SDS011;4665;51.368;6.782;2022-09-09T02:04:40;3.03;;;1.60;;
9256;SDS011;4665;51.368;6.782;2022-09-09T02:09:44;2.03;;;1.57;;
9256;SDS011;4665;51.368;6.782;2022-09-09T02:12:16;3.13;;;2.20;;
9256;SDS011;4665;51.368;6.782;2022-09-09T02:14:47;3.40;;;2.07;;
9256;SDS011;4665;51.368;6.782;2022-09-09T02:17:31;2.90;;;1.70;;
9256;SDS011;4665;51.368;6.782;2022-09-09T02:20:05;3.23;;;1.80;;
9256;SDS011;4665;51.368;6.782;2022-09-09T02:22:33;1.70;;;1.60;;
9256;SDS011;4665;51.368;6.782;2022-09-09T02:25:00;1.53;;;1.50;;
9256;SDS011;4665;51.368;6.782;2022-09-09T02:27:30;2.27;;;1.73;;
9256;SDS011;4665;51.368;6.782;2022-09-09T02:29:55;1.90;;;1.80;;
9256;SDS011;4665;51.368;6.782;2022-09-09T02:32:25;1.70;;;1.50;;
9256;SDS011;4665;51.368;6.782;2022-09-09T02:34:53;1.70;;;1.60;;
9256;SDS011;4665;51.368;6.782;2022-09-09T02:37:26;2.13;;;1.60;;
9256;SDS011;4665;51.368;6.782;2022-09-09T02:39:56;2.40;;;1.80;;
9256;SDS011;4665;51.368;6.782;2022-09-09T02:42:22;3.93;;;2.03;;
9256;SDS011;4665;51.368;6.782;2022-09-09T02:44:49;1.53;;;1.43;;
9256;SDS011;4665;51.368;6.782;2022-09-09T02:50:12;1.70;;;1.60;;
9256;SDS011;4665;51.368;6.782;2022-09-09T02:53:03;2.00;;;1.90;;
9256;SDS011;4665;51.368;6.782;2022-09-09T02:55:54;7.03;;;2.17;;
9256;SDS011;4665;51.368;6.782;2022-09-09T02:58:41;1.97;;;1.73;;
9256;SDS011;4665;51.368;6.782;2022-09-09T03:01:07;2.30;;;1.90;;
9256;SDS011;4665;51.368;6.782;2022-09-09T03:03:33;2.30;;;2.20;;
9256;SDS011;4665;51.368;6.782;2022-09-09T03:05:59;2.50;;;2.30;;
9256;SDS011;4665;51.368;6.782;2022-09-09T03:08:25;2.90;;;1.70;;
9256;SDS011;4665;51.368;6.782;2022-09-09T03:10:53;4.43;;;2.20;;
9256;SDS011;4665;51.368;6.782;2022-09-09T03:13:19;3.60;;;2.20;;
9256;SDS011;4665;51.368;6.782;2022-09-09T03:15:44;2.63;;;1.80;;
9256;SDS011;4665;51.368;6.782;2022-09-09T03:18:10;2.20;;;1.97;;
9256;SDS011;4665;51.368;6.782;2022-09-09T03:20:35;1.93;;;1.83;;
9256;SDS011;4665;51.368;6.782;2022-09-09T03:23:01;3.23;;;2.20;;
9256;SDS011;4665;51.368;6.782;2022-09-09T03:25:27;3.30;;;2.10;;
9256;SDS011;4665;51.368;6.782;2022-09-09T03:27:53;4.27;;;2.03;;
9256;SDS011;4665;51.368;6.782;2022-09-09T03:30:23;2.00;;;1.53;;
9256;SDS011;4665;51.368;6.782;2022-09-09T03:32:50;3.63;;;2.10;;
9256;SDS011;4665;51.368;6.782;2022-09-09T03:35:16;2.50;;;1.80;;
9256;SDS011;4665;51.368;6.782;2022-09-09T03:37:42;2.70;;;1.90;;
9256;SDS011;4665;51.368;6.782;2022-09-09T03:40:07;4.50;;;2.20;;
9256;SDS011;4665;51.368;6.782;2022-09-09T03:42:34;1.93;;;1.53;;
9256;SDS011;4665;51.368;6.782;2022-09-09T03:45:02;2.13;;;1.97;;
9256;SDS011;4665;51.368;6.782;2022-09-09T03:47:28;1.70;;;1.60;;
9256;SDS011;4665;51.368;6.782;2022-09-09T03:49:54;2.10;;;2.00;;
9256;SDS011;4665;51.368;6.782;2022-09-09T03:52:20;2.30;;;2.10;;
9256;SDS011;4665;51.368;6.782;2022-09-09T03:54:46;3.00;;;1.80;;
9256;SDS011;4665;51.368;6.782;2022-09-09T03:57:13;2.37;;;2.07;;
9256;SDS011;4665;51.368;6.782;2022-09-09T03:59:41;5.73;;;2.10;;
9256;SDS011;4665;51.368;6.782;2022-09-09T04:02:07;2.97;;;1.97;;
9256;SDS011;4665;51.368;6.782;2022-09-09T04:04:32;3.50;;;2.20;;
9256;SDS011;4665;51.368;6.782;2022-09-09T04:06:57;2.60;;;1.93;;
9256;SDS011;4665;51.368;6.782;2022-09-09T04:09:23;2.77;;;2.00;;
9256;SDS011;4665;51.368;6.782;2022-09-09T04:11:48;5.43;;;2.30;;
9256;SDS011;4665;51.368;6.782;2022-09-09T04:14:14;3.00;;;1.83;;
9256;SDS011;4665;51.368;6.782;2022-09-09T04:16:40;3.07;;;2.23;;
9256;SDS011;4665;51.368;6.782;2022-09-09T04:19:09;1.87;;;1.63;;
9256;SDS011;4665;51.368;6.782;2022-09-09T04:21:37;4.33;;;1.90;;
9256;SDS011;4665;51.368;6.782;2022-09-09T04:24:04;2.30;;;2.10;;
9256;SDS011;4665;51.368;6.782;2022-09-09T04:26:30;2.03;;;1.83;;
9256;SDS011;4665;51.368;6.782;2022-09-09T04:28:56;2.50;;;2.00;;
9256;SDS011;4665;51.368;6.782;2022-09-09T04:31:21;2.57;;;1.70;;
9256;SDS011;4665;51.368;6.782;2022-09-09T04:33:49;3.10;;;2.00;;
9256;SDS011;4665;51.368;6.782;2022-09-09T04:36:15;3.27;;;2.03;;
9256;SDS011;4665;51.368;6.782;2022-09-09T04:38:41;2.47;;;1.70;;
9256;SDS011;4665;51.368;6.782;2022-09-09T04:41:07;1.90;;;1.80;;
9256;SDS011;4665;51.368;6.782;2022-09-09T04:43:33;6.27;;;2.73;;
9256;SDS011;4665;51.368;6.782;2022-09-09T04:45:59;5.27;;;2.00;;
9256;SDS011;4665;51.368;6.782;2022-09-09T04:48:24;1.83;;;1.70;;
9256;SDS011;4665;51.368;6.782;2022-09-09T04:51:06;5.57;;;2.30;;
9256;SDS011;4665;51.368;6.782;2022-09-09T04:53:34;2.13;;;1.67;;
9256;SDS011;4665;51.368;6.782;2022-09-09T04:56:03;4.20;;;2.47;;
9256;SDS011;4665;51.368;6.782;2022-09-09T04:58:37;2.23;;;1.83;;
9256;SDS011;4665;51.368;6.782;2022-09-09T05:01:07;4.10;;;2.00;;
9256;SDS011;4665;51.368;6.782;2022-09-09T05:03:34;2.90;;;2.00;;
9256;SDS011;4665;51.368;6.782;2022-09-09T05:08:33;1.60;;;1.50;;
9256;SDS011;4665;51.368;6.782;2022-09-09T05:10:59;3.27;;;2.00;;
9256;SDS011;4665;51.368;6.782;2022-09-09T05:13:25;2.33;;;1.90;;
9256;SDS011;4665;51.368;6.782;2022-09-09T05:15:54;4.83;;;2.33;;
9256;SDS011;4665;51.368;6.782;2022-09-09T05:18:20;5.87;;;2.17;;
9256;SDS011;4665;51.368;6.782;2022-09-09T05:20:47;3.07;;;1.87;;
9256;SDS011;4665;51.368;6.782;2022-09-09T05:23:13;3.20;;;2.40;;
9256;SDS011;4665;51.368;6.782;2022-09-09T05:25:38;2.50;;;2.23;;
9256;SDS011;4665;51.368;6.782;2022-09-09T05:28:05;2.97;;;2.37;;
9256;SDS011;4665;51.368;6.782;2022-09-09T05:30:32;3.57;;;2.30;;
9256;SDS011;4665;51.368;6.782;2022-09-09T05:32:57;2.90;;;2.37;;
9256;SDS011;4665;51.368;6.782;2022-09-09T05:35:23;5.70;;;2.07;;
9256;SDS011;4665;51.368;6.782;2022-09-09T05:37:48;3.03;;;2.00;;
9256;SDS011;4665;51.368;6.782;2022-09-09T05:40:14;4.13;;;2.20;;
9256;SDS011;4665;51.368;6.782;2022-09-09T05:42:39;2.83;;;2.43;;
9256;SDS011;4665;51.368;6.782;2022-09-09T05:45:06;7.33;;;2.23;;
9256;SDS011;4665;51.368;6.782;2022-09-09T05:47:33;5.03;;;2.57;;
9256;SDS011;4665;51.368;6.782;2022-09-09T05:49:58;3.70;;;2.20;;
9256;SDS011;4665;51.368;6.782;2022-09-09T05:52:24;4.07;;;2.43;;
9256;SDS011;4665;51.368;6.782;2022-09-09T05:54:51;3.27;;;2.13;;
9256;SDS011;4665;51.368;6.782;2022-09-09T05:57:16;4.93;;;2.60;;
9256;SDS011;4665;51.368;6.782;2022-09-09T05:59:42;4.80;;;2.37;;
9256;SDS011;4665;51.368;6.782;2022-09-09T06:02:08;3.83;;;2.57;;
9256;SDS011;4665;51.368;6.782;2022-09-09T06:04:34;5.77;;;2.30;;
9256;SDS011;4665;51.368;6.782;2022-09-09T06:06:59;3.93;;;2.30;;
9256;SDS011;4665;51.368;6.782;2022-09-09T06:09:25;4.60;;;2.13;;
9256;SDS011;4665;51.368;6.782;2022-09-09T06:11:51;5.23;;;2.37;;
9256;SDS011;4665;51.368;6.782;2022-09-09T06:14:17;3.13;;;2.27;;
9256;SDS011;4665;51.368;6.782;2022-09-09T06:16:46;3.57;;;2.00;;
9256;SDS011;4665;51.368;6.782;2022-09-09T06:19:12;6.60;;;2.23;;
9256;SDS011;4665;51.368;6.782;2022-09-09T06:21:38;6.73;;;2.47;;
9256;SDS011;4665;51.368;6.782;2022-09-09T06:24:03;5.57;;;2.37;;
9256;SDS011;4665;51.368;6.782;2022-09-09T06:26:31;3.43;;;2.47;;
9256;SDS011;4665;51.368;6.782;2022-09-09T06:28:58;7.13;;;2.60;;
9256;SDS011;4665;51.368;6.782;2022-09-09T06:31:25;2.40;;;2.20;;
9256;SDS011;4665;51.368;6.782;2022-09-09T06:33:55;4.33;;;2.20;;
9256;SDS011;4665;51.368;6.782;2022-09-09T06:36:21;4.13;;;2.33;;
9256;SDS011;4665;51.368;6.782;2022-09-09T06:38:51;4.60;;;2.23;;
9256;SDS011;4665;51.368;6.782;2022-09-09T06:41:18;4.80;;;2.50;;
9256;SDS011;4665;51.368;6.782;2022-09-09T06:43:45;5.63;;;2.70;;
9256;SDS011;4665;51.368;6.782;2022-09-09T06:46:15;5.33;;;2.70;;
9256;SDS011;4665;51.368;6.782;2022-09-09T06:48:41;8.50;;;2.70;;
9256;SDS011;4665;51.368;6.782;2022-09-09T06:53:38;7.57;;;2.90;;
9256;SDS011;4665;51.368;6.782;2022-09-09T06:59:10;5.03;;;2.23;;
9256;SDS011;4665;51.368;6.782;2022-09-09T07:01:40;7.47;;;2.40;;
9256;SDS011;4665;51.368;6.782;2022-09-09T07:04:08;5.33;;;2.30;;
9256;SDS011;4665;51.368;6.782;2022-09-09T07:06:40;7.53;;;2.53;;
9256;SDS011;4665;51.368;6.782;2022-09-09T07:09:08;4.50;;;2.17;;
9256;SDS011;4665;51.368;6.782;2022-09-09T07:14:06;9.47;;;2.90;;
9256;SDS011;4665;51.368;6.782;2022-09-09T07:16:32;3.90;;;1.83;;
9256;SDS011;4665;51.368;6.782;2022-09-09T07:18:58;6.03;;;2.40;;
9256;SDS011;4665;51.368;6.782;2022-09-09T07:21:25;5.33;;;2.20;;
9256;SDS011;4665;51.368;6.782;2022-09-09T07:23:52;7.03;;;2.23;;
9256;SDS011;4665;51.368;6.782;2022-09-09T07:26:19;5.63;;;1.97;;
9256;SDS011;4665;51.368;6.782;2022-09-09T07:28:46;6.87;;;2.43;;
9256;SDS011;4665;51.368;6.782;2022-09-09T07:31:17;6.10;;;2.33;;
9256;SDS011;4665;51.368;6.782;2022-09-09T07:33:46;5.37;;;2.30;;
9256;SDS011;4665;51.368;6.782;2022-09-09T07:36:14;5.87;;;1.90;;
9256;SDS011;4665;51.368;6.782;2022-09-09T07:38:42;5.53;;;2.27;;
9256;SDS011;4665;51.368;6.782;2022-09-09T07:41:11;6.80;;;2.03;;
9256;SDS011;4665;51.368;6.782;2022-09-09T07:43:39;3.83;;;1.87;;
9256;SDS011;4665;51.368;6.782;2022-09-09T07:46:09;4.93;;;1.77;;
9256;SDS011;4665;51.368;6.782;2022-09-09T07:48:37;5.33;;;2.10;;
9256;SDS011;4665;51.368;6.782;2022-09-09T07:51:10;4.00;;;2.17;;
9256;SDS011;4665;51.368;6.782;2022-09-09T07:53:38;4.80;;;2.17;;
9256;SDS011;4665;51.368;6.782;2022-09-09T07:56:05;3.40;;;1.93;;
9256;SDS011;4665;51.368;6.782;2022-09-09T07:58:32;6.43;;;2.17;;
9256;SDS011;4665;51.368;6.782;2022-09-09T08:00:58;4.40;;;2.17;;
9256;SDS011;4665;51.368;6.782;2022-09-09T08:03:24;6.40;;;2.00;;
9256;SDS011;4665;51.368;6.782;2022-09-09T08:05:49;5.00;;;1.80;;
9256;SDS011;4665;51.368;6.782;2022-09-09T08:08:15;5.47;;;1.87;;
9256;SDS011;4665;51.368;6.782;2022-09-09T08:10:41;4.63;;;1.80;;
9256;SDS011;4665;51.368;6.782;2022-09-09T08:13:08;3.43;;;1.70;;
9256;SDS011;4665;51.368;6.782;2022-09-09T08:15:34;4.30;;;1.73;;
9256;SDS011;4665;51.368;6.782;2022-09-09T08:17:59;4.40;;;1.50;;
9256;SDS011;4665;51.368;6.782;2022-09-09T08:20:25;2.97;;;2.00;;
9256;SDS011;4665;51.368;6.782;2022-09-09T08:22:50;4.40;;;1.90;;
9256;SDS011;4665;51.368;6.782;2022-09-09T08:25:15;2.40;;;1.50;;
9256;SDS011;4665;51.368;6.782;2022-09-09T08:27:41;3.50;;;1.50;;
9256;SDS011;4665;51.368;6.782;2022-09-09T08:30:06;6.23;;;1.73;;
9256;SDS011;4665;51.368;6.782;2022-09-09T08:32:32;3.87;;;1.67;;
9256;SDS011;4665;51.368;6.782;2022-09-09T08:34:58;5.73;;;1.93;;
9256;SDS011;4665;51.368;6.782;2022-09-09T08:37:23;5.23;;;1.77;;
9256;SDS011;4665;51.368;6.782;2022-09-09T08:39:48;4.67;;;1.97;;
9256;SDS011;4665;51.368;6.782;2022-09-09T08:45:14;6.60;;;1.80;;
9256;SDS011;4665;51.368;6.782;2022-09-09T08:48:03;3.23;;;1.73;;
9256;SDS011;4665;51.368;6.782;2022-09-09T08:50:36;9.07;;;1.87;;
9256;SDS011;4665;51.368;6.782;2022-09-09T08:58:14;2.30;;;1.57;;
9256;SDS011;4665;51.368;6.782;2022-09-09T09:11:53;3.53;;;1.37;;
9256;SDS011;4665;51.368;6.782;2022-09-09T09:14:22;3.50;;;1.50;;
9256;SDS011;4665;51.368;6.782;2022-09-09T09:19:35;5.53;;;2.20;;
9256;SDS011;4665;51.368;6.782;2022-09-09T09:28:01;6.00;;;1.57;;
9256;SDS011;4665;51.368;6.782;2022-09-09T09:30:34;2.33;;;1.53;;
9256;SDS011;4665;51.368;6.782;2022-09-09T09:33:14;5.33;;;1.80;;
9256;SDS011;4665;51.368;6.782;2022-09-09T09:35:43;4.13;;;1.57;;
9256;SDS011;4665;51.368;6.782;2022-09-09T09:38:19;4.13;;;1.50;;
9256;SDS011;4665;51.368;6.782;2022-09-09T09:40:57;4.07;;;2.00;;
9256;SDS011;4665;51.368;6.782;2022-09-09T09:43:25;6.23;;;1.67;;
9256;SDS011;4665;51.368;6.782;2022-09-09T09:45:52;2.77;;;1.60;;
9256;SDS011;4665;51.368;6.782;2022-09-09T09:48:18;4.43;;;1.70;;
9256;SDS011;4665;51.368;6.782;2022-09-09T09:50:48;5.40;;;1.43;;
9256;SDS011;4665;51.368;6.782;2022-09-09T09:53:20;2.53;;;1.40;;
9256;SDS011;4665;51.368;6.782;2022-09-09T09:56:00;4.17;;;1.50;;
9256;SDS011;4665;51.368;6.782;2022-09-09T09:58:27;2.67;;;1.30;;
9256;SDS011;4665;51.368;6.782;2022-09-09T10:00:57;4.80;;;1.37;;
9256;SDS011;4665;51.368;6.782;2022-09-09T10:03:31;2.10;;;1.30;;
9256;SDS011;4665;51.368;6.782;2022-09-09T10:06:02;4.20;;;1.40;;
9256;SDS011;4665;51.368;6.782;2022-09-09T10:08:28;2.17;;;1.27;;
9256;SDS011;4665;51.368;6.782;2022-09-09T10:13:48;2.77;;;1.10;;
9256;SDS011;4665;51.368;6.782;2022-09-09T10:19:20;2.47;;;1.07;;
9256;SDS011;4665;51.368;6.782;2022-09-09T10:30:19;1.70;;;1.13;;
9256;SDS011;4665;51.368;6.782;2022-09-09T10:40:42;1.30;;;0.87;;
9256;SDS011;4665;51.368;6.782;2022-09-09T10:54:34;3.30;;;1.10;;
9256;SDS011;4665;51.368;6.782;2022-09-09T10:57:08;1.60;;;1.10;;
9256;SDS011;4665;51.368;6.782;2022-09-09T10:59:51;1.70;;;0.80;;
9256;SDS011;4665;51.368;6.782;2022-09-09T11:02:31;1.53;;;1.13;;
9256;SDS011;4665;51.368;6.782;2022-09-09T11:08:09;3.80;;;1.37;;
9256;SDS011;4665;51.368;6.782;2022-09-09T11:13:43;3.53;;;1.60;;
9256;SDS011;4665;51.368;6.782;2022-09-09T11:19:44;5.10;;;1.40;;
9256;SDS011;4665;51.368;6.782;2022-09-09T11:39:18;2.93;;;1.03;;
9256;SDS011;4665;51.368;6.782;2022-09-09T11:41:51;2.53;;;1.00;;
9256;SDS011;4665;51.368;6.782;2022-09-09T11:44:18;3.13;;;1.10;;
9256;SDS011;4665;51.368;6.782;2022-09-09T11:46:53;3.20;;;0.90;;
9256;SDS011;4665;51.368;6.782;2022-09-09T11:49:25;1.23;;;0.80;;
9256;SDS011;4665;51.368;6.782;2022-09-09T11:52:21;1.47;;;1.03;;
9256;SDS011;4665;51.368;6.782;2022-09-09T11:55:08;2.13;;;1.00;;
9256;SDS011;4665;51.368;6.782;2022-09-09T11:57:57;3.30;;;1.07;;
9256;SDS011;4665;51.368;6.782;2022-09-09T12:00:49;1.27;;;1.17;;
9256;SDS011;4665;51.368;6.782;2022-09-09T12:06:19;4.80;;;1.00;;
9256;SDS011;4665;51.368;6.782;2022-09-09T12:08:51;2.07;;;0.80;;
9256;SDS011;4665;51.368;6.782;2022-09-09T12:11:29;2.47;;;1.07;;
9256;SDS011;4665;51.368;6.782;2022-09-09T12:13:56;3.17;;;1.23;;
9256;SDS011;4665;51.368;6.782;2022-09-09T12:19:05;3.70;;;1.33;;
9256;SDS011;4665;51.368;6.782;2022-09-09T12:24:35;1.23;;;0.80;;
9256;SDS011;4665;51.368;6.782;2022-09-09T12:27:07;4.03;;;1.17;;
9256;SDS011;4665;51.368;6.782;2022-09-09T12:32:17;6.93;;;1.30;;
9256;SDS011;4665;51.368;6.782;2022-09-09T12:39:57;3.60;;;1.10;;
9256;SDS011;4665;51.368;6.782;2022-09-09T12:42:25;1.83;;;0.90;;
9256;SDS011;4665;51.368;6.782;2022-09-09T12:44:55;4.73;;;1.30;;
9256;SDS011;4665;51.368;6.782;2022-09-09T12:47:27;2.00;;;0.83;;
9256;SDS011;4665;51.368;6.782;2022-09-09T12:50:00;3.13;;;1.23;;
9256;SDS011;4665;51.368;6.782;2022-09-09T12:52:30;1.47;;;1.27;;
9256;SDS011;4665;51.368;6.782;2022-09-09T12:55:02;1.93;;;1.20;;
9256;SDS011;4665;51.368;6.782;2022-09-09T12:57:33;2.03;;;1.17;;
9256;SDS011;4665;51.368;6.782;2022-09-09T13:00:10;2.97;;;1.13;;
9256;SDS011;4665;51.368;6.782;2022-09-09T13:02:50;1.33;;;1.23;;
9256;SDS011;4665;51.368;6.782;2022-09-09T13:05:19;2.27;;;1.37;;
9256;SDS011;4665;51.368;6.782;2022-09-09T13:07:47;3.10;;;1.73;;
9256;SDS011;4665;51.368;6.782;2022-09-09T13:10:13;3.07;;;1.50;;
9256;SDS011;4665;51.368;6.782;2022-09-09T13:12:44;3.20;;;1.60;;
9256;SDS011;4665;51.368;6.782;2022-09-09T13:15:12;2.43;;;1.47;;
9256;SDS011;4665;51.368;6.782;2022-09-09T13:17:49;1.30;;;1.20;;
9256;SDS011;4665;51.368;6.782;2022-09-09T13:20:17;1.73;;;1.33;;
9256;SDS011;4665;51.368;6.782;2022-09-09T13:22:44;1.80;;;1.60;;
9256;SDS011;4665;51.368;6.782;2022-09-09T13:27:38;2.73;;;1.87;;
9256;SDS011;4665;51.368;6.782;2022-09-09T13:35:31;1.47;;;1.27;;
9256;SDS011;4665;51.368;6.782;2022-09-09T13:37:58;3.10;;;1.37;;
9256;SDS011;4665;51.368;6.782;2022-09-09T13:40:31;2.07;;;1.33;;
9256;SDS011;4665;51.368;6.782;2022-09-09T13:42:56;1.40;;;1.20;;
9256;SDS011;4665;51.368;6.782;2022-09-09T13:45:24;1.47;;;1.37;;
9256;SDS011;4665;51.368;6.782;2022-09-09T13:47:54;2.60;;;1.37;;
9256;SDS011;4665;51.368;6.782;2022-09-09T13:52:56;1.93;;;1.27;;
9256;SDS011;4665;51.368;6.782;2022-09-09T13:55:24;3.03;;;1.30;;
9256;SDS011;4665;51.368;6.782;2022-09-09T13:58:03;1.37;;;0.90;;
9256;SDS011;4665;51.368;6.782;2022-09-09T14:00:31;2.47;;;1.37;;
9256;SDS011;4665;51.368;6.782;2022-09-09T14:02:59;2.90;;;1.43;;
9256;SDS011;4665;51.368;6.782;2022-09-09T14:05:27;1.07;;;0.97;;
9256;SDS011;4665;51.368;6.782;2022-09-09T14:07:55;2.03;;;1.30;;
9256;SDS011;4665;51.368;6.782;2022-09-09T14:10:20;2.03;;;1.50;;
9256;SDS011;4665;51.368;6.782;2022-09-09T14:12:47;3.17;;;1.47;;
9256;SDS011;4665;51.368;6.782;2022-09-09T14:15:12;3.40;;;1.43;;
9256;SDS011;4665;51.368;6.782;2022-09-09T14:17:39;0.77;;;0.73;;
9256;SDS011;4665;51.368;6.782;2022-09-09T14:20:05;1.30;;;1.20;;
9256;SDS011;4665;51.368;6.782;2022-09-09T14:22:32;1.90;;;1.00;;
9256;SDS011;4665;51.368;6.782;2022-09-09T14:24:58;1.37;;;1.07;;
9256;SDS011;4665;51.368;6.782;2022-09-09T14:27:23;2.10;;;1.20;;
9256;SDS011;4665;51.368;6.782;2022-09-09T14:29:50;2.23;;;1.67;;
9256;SDS011;4665;51.368;6.782;2022-09-09T14:32:16;2.43;;;1.30;;
9256;SDS011;4665;51.368;6.782;2022-09-09T14:34:41;3.17;;;1.37;;
9256;SDS011;4665;51.368;6.782;2022-09-09T14:37:07;2.73;;;1.10;;
9256;SDS011;4665;51.368;6.782;2022-09-09T14:39:32;1.60;;;0.60;;
9256;SDS011;4665;51.368;6.782;2022-09-09T14:41:57;2.83;;;0.70;;
9256;SDS011;4665;51.368;6.782;2022-09-09T14:44:23;0.70;;;0.60;;
9256;SDS011;4665;51.368;6.782;2022-09-09T14:46:48;2.07;;;0.40;;
9256;SDS011;4665;51.368;6.782;2022-09-09T14:49:16;1.27;;;0.47;;
9256;SDS011;4665;51.368;6.782;2022-09-09T14:51:42;1.27;;;0.53;;
9256;SDS011;4665;51.368;6.782;2022-09-09T14:54:07;2.93;;;0.70;;
9256;SDS011;4665;51.368;6.782;2022-09-09T14:56:33;1.87;;;1.23;;
9256;SDS011;4665;51.368;6.782;2022-09-09T14:59:02;1.90;;;1.07;;
9256;SDS011;4665;51.368;6.782;2022-09-09T15:01:29;0.97;;;0.70;;
9256;SDS011;4665;51.368;6.782;2022-09-09T15:06:23;1.00;;;0.87;;
9256;SDS011;4665;51.368;6.782;2022-09-09T15:08:51;1.17;;;1.00;;
9256;SDS011;4665;51.368;6.782;2022-09-09T15:11:17;1.63;;;1.10;;
9256;SDS011;4665;51.368;6.782;2022-09-09T15:13:43;1.00;;;0.70;;
9256;SDS011;4665;51.368;6.782;2022-09-09T15:16:10;0.67;;;0.60;;
9256;SDS011;4665;51.368;6.782;2022-09-09T15:18:38;1.03;;;0.67;;
9256;SDS011;4665;51.368;6.782;2022-09-09T15:21:17;1.80;;;0.70;;
9256;SDS011;4665;51.368;6.782;2022-09-09T15:23:44;1.83;;;0.90;;
9256;SDS011;4665;51.368;6.782;2022-09-09T15:26:10;0.67;;;0.60;;
9256;SDS011;4665;51.368;6.782;2022-09-09T15:28:39;0.73;;;0.73;;
9256;SDS011;4665;51.368;6.782;2022-09-09T15:31:06;0.70;;;0.70;;
9256;SDS011;4665;51.368;6.782;2022-09-09T15:33:35;0.93;;;0.47;;
9256;SDS011;4665;51.368;6.782;2022-09-09T15:36:12;0.83;;;0.53;;
9256;SDS011;4665;51.368;6.782;2022-09-09T15:38:50;2.20;;;0.60;;
9256;SDS011;4665;51.368;6.782;2022-09-09T15:41:17;1.13;;;0.67;;
9256;SDS011;4665;51.368;6.782;2022-09-09T15:43:44;1.07;;;0.50;;
9256;SDS011;4665;51.368;6.782;2022-09-09T15:48:42;0.60;;;0.60;;
9256;SDS011;4665;51.368;6.782;2022-09-09T15:51:11;1.10;;;0.83;;
9256;SDS011;4665;51.368;6.782;2022-09-09T15:53:38;2.27;;;0.90;;
9256;SDS011;4665;51.368;6.782;2022-09-09T15:56:04;1.13;;;0.93;;
9256;SDS011;4665;51.368;6.782;2022-09-09T15:58:34;0.60;;;0.60;;
9256;SDS011;4665;51.368;6.782;2022-09-09T16:01:04;1.43;;;0.70;;
9256;SDS011;4665;51.368;6.782;2022-09-09T16:03:30;0.90;;;0.77;;
9256;SDS011;4665;51.368;6.782;2022-09-09T16:05:59;1.30;;;0.67;;
9256;SDS011;4665;51.368;6.782;2022-09-09T16:08:24;1.13;;;0.80;;
9256;SDS011;4665;51.368;6.782;2022-09-09T16:10:50;1.37;;;1.20;;
9256;SDS011;4665;51.368;6.782;2022-09-09T16:13:15;2.00;;;0.93;;
9256;SDS011;4665;51.368;6.782;2022-09-09T16:15:41;0.80;;;0.80;;
9256;SDS011;4665;51.368;6.782;2022-09-09T16:18:07;0.70;;;0.63;;
9256;SDS011;4665;51.368;6.782;2022-09-09T16:20:32;0.90;;;0.90;;
9256;SDS011;4665;51.368;6.782;2022-09-09T16:22:58;2.50;;;1.20;;
9256;SDS011;4665;51.368;6.782;2022-09-09T16:25:23;2.03;;;1.07;;
9256;SDS011;4665;51.368;6.782;2022-09-09T16:27:49;1.40;;;1.30;;
9256;SDS011;4665;51.368;6.782;2022-09-09T16:30:14;1.70;;;1.53;;
9256;SDS011;4665;51.368;6.782;2022-09-09T16:32:40;2.30;;;1.60;;
9256;SDS011;4665;51.368;6.782;2022-09-09T16:35:05;1.50;;;1.40;;
9256;SDS011;4665;51.368;6.782;2022-09-09T16:37:31;3.00;;;1.80;;
9256;SDS011;4665;51.368;6.782;2022-09-09T16:39:58;1.53;;;1.40;;
9256;SDS011;4665;51.368;6.782;2022-09-09T16:42:24;1.50;;;1.40;;
9256;SDS011;4665;51.368;6.782;2022-09-09T16:44:49;1.70;;;1.60;;
9256;SDS011;4665;51.368;6.782;2022-09-09T16:47:15;2.77;;;2.00;;
9256;SDS011;4665;51.368;6.782;2022-09-09T16:49:40;1.50;;;1.30;;
9256;SDS011;4665;51.368;6.782;2022-09-09T16:52:06;2.60;;;2.10;;
9256;SDS011;4665;51.368;6.782;2022-09-09T16:54:31;4.10;;;1.97;;
9256;SDS011;4665;51.368;6.782;2022-09-09T16:56:56;2.70;;;1.80;;
9256;SDS011;4665;51.368;6.782;2022-09-09T16:59:22;2.10;;;1.90;;
9256;SDS011;4665;51.368;6.782;2022-09-09T17:01:49;2.77;;;1.70;;
9256;SDS011;4665;51.368;6.782;2022-09-09T17:04:19;3.30;;;1.80;;
9256;SDS011;4665;51.368;6.782;2022-09-09T17:06:49;3.70;;;1.90;;
9256;SDS011;4665;51.368;6.782;2022-09-09T17:09:15;2.40;;;1.83;;
9256;SDS011;4665;51.368;6.782;2022-09-09T17:11:42;2.63;;;2.00;;
9256;SDS011;4665;51.368;6.782;2022-09-09T17:14:08;2.30;;;1.83;;
9256;SDS011;4665;51.368;6.782;2022-09-09T17:16:37;1.37;;;1.27;;
9256;SDS011;4665;51.368;6.782;2022-09-09T17:19:04;3.43;;;1.77;;
9256;SDS011;4665;51.368;6.782;2022-09-09T17:21:30;1.87;;;1.60;;
9256;SDS011;4665;51.368;6.782;2022-09-09T17:23:57;2.13;;;1.73;;
9256;SDS011;4665;51.368;6.782;2022-09-09T17:26:24;2.90;;;1.67;;
9256;SDS011;4665;51.368;6.782;2022-09-09T17:28:52;1.93;;;1.80;;
9256;SDS011;4665;51.368;6.782;2022-09-09T17:31:20;3.50;;;1.50;;
9256;SDS011;4665;51.368;6.782;2022-09-09T17:33:49;4.10;;;1.37;;
9256;SDS011;4665;51.368;6.782;2022-09-09T17:36:21;1.50;;;1.40;;
9256;SDS011;4665;51.368;6.782;2022-09-09T17:38:49;5.03;;;1.73;;
9256;SDS011;4665;51.368;6.782;2022-09-09T17:41:16;3.13;;;1.40;;
9256;SDS011;4665;51.368;6.782;2022-09-09T17:43:44;2.77;;;1.80;;
9256;SDS011;4665;51.368;6.782;2022-09-09T17:46:11;5.43;;;1.70;;
9256;SDS011;4665;51.368;6.782;2022-09-09T17:48:38;1.70;;;1.60;;
9256;SDS011;4665;51.368;6.782;2022-09-09T17:51:06;3.63;;;1.80;;
9256;SDS011;4665;51.368;6.782;2022-09-09T17:53:43;1.53;;;1.43;;
9256;SDS011;4665;51.368;6.782;2022-09-09T17:56:11;2.33;;;1.63;;
9256;SDS011;4665;51.368;6.782;2022-09-09T17:58:38;2.77;;;1.67;;
9256;SDS011;4665;51.368;6.782;2022-09-09T18:01:05;2.57;;;1.80;;
9256;SDS011;4665;51.368;6.782;2022-09-09T18:03:36;2.30;;;2.00;;
9256;SDS011;4665;51.368;6.782;2022-09-09T18:06:03;3.87;;;1.93;;
9256;SDS011;4665;51.368;6.782;2022-09-09T18:08:30;1.87;;;1.60;;
9256;SDS011;4665;51.368;6.782;2022-09-09T18:10:56;2.13;;;1.80;;
9256;SDS011;4665;51.368;6.782;2022-09-09T18:13:22;2.57;;;1.77;;
9256;SDS011;4665;51.368;6.782;2022-09-09T18:15:48;3.40;;;2.17;;
9256;SDS011;4665;51.368;6.782;2022-09-09T18:18:13;3.57;;;2.10;;
9256;SDS011;4665;51.368;6.782;2022-09-09T18:20:39;1.97;;;1.77;;
9256;SDS011;4665;51.368;6.782;2022-09-09T18:23:05;2.50;;;2.30;;
9256;SDS011;4665;51.368;6.782;2022-09-09T18:25:31;2.23;;;2.03;;